sensor_id;sensor_type;location;lat;lon;timestamp;P1;durP1;ratioP1;P2;durP2;ratioP2
9522;SDS011;63165;43.016;25.784;2022-10-28T00:01:15;10.80;;;4.68;;
9522;SDS011;63165;43.016;25.784;2022-10-28T00:03:45;11.32;;;4.35;;
9522;SDS011;63165;43.016;25.784;2022-10-28T00:06:16;12.90;;;4.53;;
9522;SDS011;63165;43.016;25.784;2022-10-28T00:08:45;9.93;;;3.92;;
9522;SDS011;63165;43.016;25.784;2022-10-28T00:11:13;9.40;;;3.38;;
9522;SDS011;63165;43.016;25.784;2022-10-28T00:13:43;16.13;;;4.63;;
9522;SDS011;63165;43.016;25.784;2022-10-28T00:16:11;27.85;;;5.45;;
9522;SDS011;63165;43.016;25.784;2022-10-28T00:18:40;17.73;;;5.38;;
9522;SDS011;63165;43.016;25.784;2022-10-28T00:21:10;19.45;;;5.15;;
9522;SDS011;63165;43.016;25.784;2022-10-28T00:23:41;13.52;;;5.70;;
9522;SDS011;63165;43.016;25.784;2022-10-28T00:26:10;10.85;;;4.60;;
9522;SDS011;63165;43.016;25.784;2022-10-28T00:28:39;9.20;;;4.18;;
9522;SDS011;63165;43.016;25.784;2022-10-28T00:31:08;13.02;;;4.72;;
9522;SDS011;63165;43.016;25.784;2022-10-28T00:33:38;12.15;;;3.90;;
9522;SDS011;63165;43.016;25.784;2022-10-28T00:36:06;12.15;;;4.50;;
9522;SDS011;63165;43.016;25.784;2022-10-28T00:38:38;10.48;;;4.70;;
9522;SDS011;63165;43.016;25.784;2022-10-28T00:41:08;9.00;;;4.20;;
9522;SDS011;63165;43.016;25.784;2022-10-28T00:43:38;12.13;;;4.35;;
9522;SDS011;63165;43.016;25.784;2022-10-28T00:46:12;12.80;;;4.38;;
9522;SDS011;63165;43.016;25.784;2022-10-28T00:48:44;12.02;;;4.47;;
9522;SDS011;63165;43.016;25.784;2022-10-28T00:51:14;12.65;;;3.80;;
9522;SDS011;63165;43.016;25.784;2022-10-28T00:53:43;11.00;;;3.88;;
9522;SDS011;63165;43.016;25.784;2022-10-28T00:56:15;10.02;;;3.92;;
9522;SDS011;63165;43.016;25.784;2022-10-28T00:58:44;9.73;;;4.00;;
9522;SDS011;63165;43.016;25.784;2022-10-28T01:01:14;12.18;;;4.10;;
9522;SDS011;63165;43.016;25.784;2022-10-28T01:03:42;12.75;;;4.32;;
9522;SDS011;63165;43.016;25.784;2022-10-28T01:06:09;12.90;;;4.38;;
9522;SDS011;63165;43.016;25.784;2022-10-28T01:08:37;11.52;;;4.47;;
9522;SDS011;63165;43.016;25.784;2022-10-28T01:11:10;16.73;;;6.53;;
9522;SDS011;63165;43.016;25.784;2022-10-28T01:14:00;24.95;;;8.10;;
9522;SDS011;63165;43.016;25.784;2022-10-28T01:16:47;17.98;;;5.50;;
9522;SDS011;63165;43.016;25.784;2022-10-28T01:19:29;17.85;;;5.47;;
9522;SDS011;63165;43.016;25.784;2022-10-28T01:22:14;18.95;;;5.30;;
9522;SDS011;63165;43.016;25.784;2022-10-28T01:25:02;12.75;;;4.55;;
9522;SDS011;63165;43.016;25.784;2022-10-28T01:27:52;10.43;;;4.10;;
9522;SDS011;63165;43.016;25.784;2022-10-28T01:30:33;8.40;;;3.70;;
9522;SDS011;63165;43.016;25.784;2022-10-28T01:33:19;12.77;;;3.80;;
9522;SDS011;63165;43.016;25.784;2022-10-28T01:35:53;10.95;;;3.55;;
9522;SDS011;63165;43.016;25.784;2022-10-28T01:38:26;8.57;;;3.80;;
9522;SDS011;63165;43.016;25.784;2022-10-28T01:41:01;23.33;;;6.90;;
9522;SDS011;63165;43.016;25.784;2022-10-28T01:43:37;15.90;;;5.43;;
9522;SDS011;63165;43.016;25.784;2022-10-28T01:46:13;12.93;;;4.95;;
9522;SDS011;63165;43.016;25.784;2022-10-28T01:48:45;12.80;;;4.78;;
9522;SDS011;63165;43.016;25.784;2022-10-28T01:51:18;11.73;;;4.03;;
9522;SDS011;63165;43.016;25.784;2022-10-28T01:53:50;9.02;;;3.55;;
9522;SDS011;63165;43.016;25.784;2022-10-28T01:56:22;11.80;;;4.18;;
9522;SDS011;63165;43.016;25.784;2022-10-28T01:58:53;10.82;;;3.65;;
9522;SDS011;63165;43.016;25.784;2022-10-28T02:01:25;12.07;;;4.00;;
9522;SDS011;63165;43.016;25.784;2022-10-28T02:03:54;13.80;;;4.10;;
9522;SDS011;63165;43.016;25.784;2022-10-28T02:06:24;12.10;;;4.10;;
9522;SDS011;63165;43.016;25.784;2022-10-28T02:08:58;9.65;;;4.47;;
9522;SDS011;63165;43.016;25.784;2022-10-28T02:11:36;10.05;;;4.05;;
9522;SDS011;63165;43.016;25.784;2022-10-28T02:14:19;9.45;;;3.80;;
9522;SDS011;63165;43.016;25.784;2022-10-28T02:16:57;13.32;;;3.92;;
9522;SDS011;63165;43.016;25.784;2022-10-28T02:19:32;9.38;;;4.18;;
9522;SDS011;63165;43.016;25.784;2022-10-28T02:22:14;9.82;;;3.80;;
9522;SDS011;63165;43.016;25.784;2022-10-28T02:24:48;13.10;;;4.15;;
9522;SDS011;63165;43.016;25.784;2022-10-28T02:27:25;15.02;;;4.53;;
9522;SDS011;63165;43.016;25.784;2022-10-28T02:29:59;8.07;;;4.05;;
9522;SDS011;63165;43.016;25.784;2022-10-28T02:32:33;8.70;;;4.18;;
9522;SDS011;63165;43.016;25.784;2022-10-28T02:35:05;13.93;;;4.10;;
9522;SDS011;63165;43.016;25.784;2022-10-28T02:37:37;11.00;;;4.63;;
9522;SDS011;63165;43.016;25.784;2022-10-28T02:40:10;11.98;;;4.22;;
9522;SDS011;63165;43.016;25.784;2022-10-28T02:42:43;9.02;;;3.85;;
9522;SDS011;63165;43.016;25.784;2022-10-28T02:45:20;9.48;;;3.55;;
9522;SDS011;63165;43.016;25.784;2022-10-28T02:47:53;10.27;;;3.75;;
9522;SDS011;63165;43.016;25.784;2022-10-28T02:50:24;11.03;;;3.67;;
9522;SDS011;63165;43.016;25.784;2022-10-28T02:52:57;10.55;;;3.97;;
9522;SDS011;63165;43.016;25.784;2022-10-28T02:55:27;10.85;;;3.95;;
9522;SDS011;63165;43.016;25.784;2022-10-28T02:58:00;12.20;;;4.50;;
9522;SDS011;63165;43.016;25.784;2022-10-28T03:00:27;16.00;;;5.78;;
9522;SDS011;63165;43.016;25.784;2022-10-28T03:02:56;33.38;;;9.07;;
9522;SDS011;63165;43.016;25.784;2022-10-28T03:05:24;42.20;;;13.07;;
9522;SDS011;63165;43.016;25.784;2022-10-28T03:07:51;36.30;;;11.63;;
9522;SDS011;63165;43.016;25.784;2022-10-28T03:10:19;40.97;;;12.23;;
9522;SDS011;63165;43.016;25.784;2022-10-28T03:12:46;56.72;;;16.08;;
9522;SDS011;63165;43.016;25.784;2022-10-28T03:15:14;41.17;;;13.05;;
9522;SDS011;63165;43.016;25.784;2022-10-28T03:17:41;42.88;;;12.65;;
9522;SDS011;63165;43.016;25.784;2022-10-28T03:20:11;42.78;;;12.57;;
9522;SDS011;63165;43.016;25.784;2022-10-28T03:22:41;28.13;;;9.82;;
9522;SDS011;63165;43.016;25.784;2022-10-28T03:25:09;20.23;;;8.00;;
9522;SDS011;63165;43.016;25.784;2022-10-28T03:27:38;16.98;;;6.60;;
9522;SDS011;63165;43.016;25.784;2022-10-28T03:30:07;19.00;;;7.22;;
9522;SDS011;63165;43.016;25.784;2022-10-28T03:32:35;21.02;;;7.07;;
9522;SDS011;63165;43.016;25.784;2022-10-28T03:35:03;17.80;;;7.22;;
9522;SDS011;63165;43.016;25.784;2022-10-28T03:37:33;18.85;;;6.88;;
9522;SDS011;63165;43.016;25.784;2022-10-28T03:40:00;22.80;;;7.50;;
9522;SDS011;63165;43.016;25.784;2022-10-28T03:42:32;25.95;;;8.95;;
9522;SDS011;63165;43.016;25.784;2022-10-28T03:44:59;28.02;;;8.20;;
9522;SDS011;63165;43.016;25.784;2022-10-28T03:47:26;25.95;;;8.25;;
9522;SDS011;63165;43.016;25.784;2022-10-28T03:49:53;27.42;;;8.73;;
9522;SDS011;63165;43.016;25.784;2022-10-28T03:52:20;31.45;;;9.20;;
9522;SDS011;63165;43.016;25.784;2022-10-28T03:54:49;32.78;;;9.82;;
9522;SDS011;63165;43.016;25.784;2022-10-28T03:57:16;45.65;;;13.68;;
9522;SDS011;63165;43.016;25.784;2022-10-28T03:59:43;80.47;;;21.58;;
9522;SDS011;63165;43.016;25.784;2022-10-28T04:02:11;88.60;;;22.42;;
9522;SDS011;63165;43.016;25.784;2022-10-28T04:04:39;64.55;;;19.80;;
9522;SDS011;63165;43.016;25.784;2022-10-28T04:07:07;59.40;;;18.20;;
9522;SDS011;63165;43.016;25.784;2022-10-28T04:09:34;45.75;;;15.80;;
9522;SDS011;63165;43.016;25.784;2022-10-28T04:12:03;38.63;;;12.85;;
9522;SDS011;63165;43.016;25.784;2022-10-28T04:14:31;22.77;;;7.80;;
9522;SDS011;63165;43.016;25.784;2022-10-28T04:16:58;13.27;;;5.45;;
9522;SDS011;63165;43.016;25.784;2022-10-28T04:19:26;15.00;;;5.32;;
9522;SDS011;63165;43.016;25.784;2022-10-28T04:21:53;11.43;;;4.80;;
9522;SDS011;63165;43.016;25.784;2022-10-28T04:24:21;14.07;;;5.43;;
9522;SDS011;63165;43.016;25.784;2022-10-28T04:26:48;13.13;;;5.15;;
9522;SDS011;63165;43.016;25.784;2022-10-28T04:29:17;17.52;;;6.47;;
9522;SDS011;63165;43.016;25.784;2022-10-28T04:31:45;25.65;;;7.47;;
9522;SDS011;63165;43.016;25.784;2022-10-28T04:34:12;26.13;;;8.27;;
9522;SDS011;63165;43.016;25.784;2022-10-28T04:36:39;25.75;;;9.07;;
9522;SDS011;63165;43.016;25.784;2022-10-28T04:39:07;35.55;;;10.18;;
9522;SDS011;63165;43.016;25.784;2022-10-28T04:41:35;33.90;;;10.00;;
9522;SDS011;63165;43.016;25.784;2022-10-28T04:44:02;26.88;;;9.00;;
9522;SDS011;63165;43.016;25.784;2022-10-28T04:46:32;28.20;;;10.18;;
9522;SDS011;63165;43.016;25.784;2022-10-28T04:48:59;31.23;;;9.90;;
9522;SDS011;63165;43.016;25.784;2022-10-28T04:51:27;28.33;;;10.90;;
9522;SDS011;63165;43.016;25.784;2022-10-28T04:53:54;25.35;;;8.85;;
9522;SDS011;63165;43.016;25.784;2022-10-28T04:56:21;37.90;;;11.55;;
9522;SDS011;63165;43.016;25.784;2022-10-28T04:58:49;97.85;;;20.48;;
9522;SDS011;63165;43.016;25.784;2022-10-28T05:01:16;103.45;;;23.48;;
9522;SDS011;63165;43.016;25.784;2022-10-28T05:03:45;165.00;;;34.90;;
9522;SDS011;63165;43.016;25.784;2022-10-28T05:06:13;125.25;;;24.88;;
9522;SDS011;63165;43.016;25.784;2022-10-28T05:08:40;72.25;;;16.38;;
9522;SDS011;63165;43.016;25.784;2022-10-28T05:11:08;41.70;;;12.40;;
9522;SDS011;63165;43.016;25.784;2022-10-28T05:13:35;35.13;;;10.00;;
9522;SDS011;63165;43.016;25.784;2022-10-28T05:16:02;30.55;;;8.15;;
9522;SDS011;63165;43.016;25.784;2022-10-28T05:18:29;26.63;;;7.45;;
9522;SDS011;63165;43.016;25.784;2022-10-28T05:20:58;25.60;;;8.05;;
9522;SDS011;63165;43.016;25.784;2022-10-28T05:23:26;18.13;;;6.50;;
9522;SDS011;63165;43.016;25.784;2022-10-28T05:25:53;52.25;;;9.30;;
9522;SDS011;63165;43.016;25.784;2022-10-28T05:28:21;38.58;;;7.38;;
9522;SDS011;63165;43.016;25.784;2022-10-28T05:30:48;23.83;;;7.15;;
9522;SDS011;63165;43.016;25.784;2022-10-28T05:33:15;32.65;;;7.70;;
9522;SDS011;63165;43.016;25.784;2022-10-28T05:35:43;17.65;;;7.07;;
9522;SDS011;63165;43.016;25.784;2022-10-28T05:38:12;25.45;;;8.02;;
9522;SDS011;63165;43.016;25.784;2022-10-28T05:40:40;31.10;;;8.95;;
9522;SDS011;63165;43.016;25.784;2022-10-28T05:43:07;62.25;;;11.00;;
9522;SDS011;63165;43.016;25.784;2022-10-28T05:45:35;36.53;;;10.48;;
9522;SDS011;63165;43.016;25.784;2022-10-28T05:48:03;36.22;;;11.32;;
9522;SDS011;63165;43.016;25.784;2022-10-28T05:50:31;29.35;;;11.10;;
9522;SDS011;63165;43.016;25.784;2022-10-28T05:52:59;49.53;;;16.30;;
9522;SDS011;63165;43.016;25.784;2022-10-28T05:55:29;68.43;;;16.55;;
9522;SDS011;63165;43.016;25.784;2022-10-28T05:57:56;72.72;;;18.80;;
9522;SDS011;63165;43.016;25.784;2022-10-28T06:00:25;75.38;;;21.92;;
9522;SDS011;63165;43.016;25.784;2022-10-28T06:03:00;82.15;;;25.00;;
9522;SDS011;63165;43.016;25.784;2022-10-28T06:05:28;96.43;;;26.40;;
9522;SDS011;63165;43.016;25.784;2022-10-28T06:07:56;92.18;;;27.52;;
9522;SDS011;63165;43.016;25.784;2022-10-28T06:10:23;98.60;;;27.02;;
9522;SDS011;63165;43.016;25.784;2022-10-28T06:12:54;91.88;;;28.05;;
9522;SDS011;63165;43.016;25.784;2022-10-28T06:15:22;90.32;;;25.40;;
9522;SDS011;63165;43.016;25.784;2022-10-28T06:17:50;87.40;;;23.90;;
9522;SDS011;63165;43.016;25.784;2022-10-28T06:20:17;73.40;;;21.58;;
9522;SDS011;63165;43.016;25.784;2022-10-28T06:22:46;70.55;;;21.90;;
9522;SDS011;63165;43.016;25.784;2022-10-28T06:25:14;52.65;;;16.17;;
9522;SDS011;63165;43.016;25.784;2022-10-28T06:27:42;55.17;;;16.13;;
9522;SDS011;63165;43.016;25.784;2022-10-28T06:30:11;50.28;;;14.20;;
9522;SDS011;63165;43.016;25.784;2022-10-28T06:32:40;44.35;;;15.82;;
9522;SDS011;63165;43.016;25.784;2022-10-28T06:35:08;67.05;;;18.20;;
9522;SDS011;63165;43.016;25.784;2022-10-28T06:37:36;49.83;;;16.30;;
9522;SDS011;63165;43.016;25.784;2022-10-28T06:40:04;49.88;;;14.77;;
9522;SDS011;63165;43.016;25.784;2022-10-28T06:42:33;42.67;;;12.82;;
9522;SDS011;63165;43.016;25.784;2022-10-28T06:45:01;27.10;;;10.60;;
9522;SDS011;63165;43.016;25.784;2022-10-28T06:47:30;27.95;;;10.35;;
9522;SDS011;63165;43.016;25.784;2022-10-28T06:49:57;29.65;;;10.65;;
9522;SDS011;63165;43.016;25.784;2022-10-28T06:52:24;29.30;;;10.30;;
9522;SDS011;63165;43.016;25.784;2022-10-28T06:54:52;28.25;;;9.98;;
9522;SDS011;63165;43.016;25.784;2022-10-28T06:57:20;28.08;;;9.90;;
9522;SDS011;63165;43.016;25.784;2022-10-28T06:59:47;18.33;;;6.32;;
9522;SDS011;63165;43.016;25.784;2022-10-28T07:02:15;13.05;;;4.90;;
9522;SDS011;63165;43.016;25.784;2022-10-28T07:04:45;15.32;;;5.85;;
9522;SDS011;63165;43.016;25.784;2022-10-28T07:07:12;20.83;;;5.68;;
9522;SDS011;63165;43.016;25.784;2022-10-28T07:09:40;24.65;;;7.30;;
9522;SDS011;63165;43.016;25.784;2022-10-28T07:12:09;18.80;;;6.70;;
9522;SDS011;63165;43.016;25.784;2022-10-28T07:14:36;23.42;;;6.55;;
9522;SDS011;63165;43.016;25.784;2022-10-28T07:17:04;14.27;;;5.28;;
9522;SDS011;63165;43.016;25.784;2022-10-28T07:19:31;15.15;;;5.50;;
9522;SDS011;63165;43.016;25.784;2022-10-28T07:22:01;14.05;;;5.35;;
9522;SDS011;63165;43.016;25.784;2022-10-28T07:24:29;16.88;;;6.85;;
9522;SDS011;63165;43.016;25.784;2022-10-28T07:26:56;14.35;;;5.65;;
9522;SDS011;63165;43.016;25.784;2022-10-28T07:29:24;13.90;;;5.15;;
9522;SDS011;63165;43.016;25.784;2022-10-28T07:31:52;11.77;;;4.97;;
9522;SDS011;63165;43.016;25.784;2022-10-28T07:34:20;12.18;;;4.63;;
9522;SDS011;63165;43.016;25.784;2022-10-28T07:36:48;13.13;;;4.60;;
9522;SDS011;63165;43.016;25.784;2022-10-28T07:39:18;9.65;;;3.83;;
9522;SDS011;63165;43.016;25.784;2022-10-28T07:41:45;12.00;;;4.30;;
9522;SDS011;63165;43.016;25.784;2022-10-28T07:44:13;10.25;;;3.60;;
9522;SDS011;63165;43.016;25.784;2022-10-28T07:46:40;10.98;;;3.65;;
9522;SDS011;63165;43.016;25.784;2022-10-28T07:49:08;8.82;;;3.35;;
9522;SDS011;63165;43.016;25.784;2022-10-28T07:51:36;7.82;;;3.13;;
9522;SDS011;63165;43.016;25.784;2022-10-28T07:54:03;8.90;;;3.40;;
9522;SDS011;63165;43.016;25.784;2022-10-28T07:56:32;9.98;;;3.50;;
9522;SDS011;63165;43.016;25.784;2022-10-28T07:59:00;8.77;;;3.40;;
9522;SDS011;63165;43.016;25.784;2022-10-28T08:01:27;12.88;;;4.20;;
9522;SDS011;63165;43.016;25.784;2022-10-28T08:03:54;13.90;;;3.15;;
9522;SDS011;63165;43.016;25.784;2022-10-28T08:06:22;9.05;;;3.60;;
9522;SDS011;63165;43.016;25.784;2022-10-28T08:08:52;8.50;;;3.20;;
9522;SDS011;63165;43.016;25.784;2022-10-28T08:11:21;7.95;;;3.25;;
9522;SDS011;63165;43.016;25.784;2022-10-28T08:13:51;8.95;;;3.33;;
9522;SDS011;63165;43.016;25.784;2022-10-28T08:16:19;8.65;;;3.38;;
9522;SDS011;63165;43.016;25.784;2022-10-28T08:18:47;11.70;;;3.55;;
9522;SDS011;63165;43.016;25.784;2022-10-28T08:21:14;10.15;;;3.13;;
9522;SDS011;63165;43.016;25.784;2022-10-28T08:23:42;9.38;;;3.40;;
9522;SDS011;63165;43.016;25.784;2022-10-28T08:26:11;8.23;;;3.58;;
9522;SDS011;63165;43.016;25.784;2022-10-28T08:28:39;12.05;;;3.75;;
9522;SDS011;63165;43.016;25.784;2022-10-28T08:31:08;9.32;;;3.13;;
9522;SDS011;63165;43.016;25.784;2022-10-28T08:33:37;13.05;;;3.72;;
9522;SDS011;63165;43.016;25.784;2022-10-28T08:36:08;8.57;;;3.20;;
9522;SDS011;63165;43.016;25.784;2022-10-28T08:38:37;6.80;;;3.33;;
9522;SDS011;63165;43.016;25.784;2022-10-28T08:41:07;9.95;;;3.40;;
9522;SDS011;63165;43.016;25.784;2022-10-28T08:43:50;6.15;;;3.45;;
9522;SDS011;63165;43.016;25.784;2022-10-28T08:46:36;9.40;;;3.50;;
9522;SDS011;63165;43.016;25.784;2022-10-28T08:49:18;8.15;;;3.25;;
9522;SDS011;63165;43.016;25.784;2022-10-28T08:51:48;7.72;;;3.20;;
9522;SDS011;63165;43.016;25.784;2022-10-28T08:54:19;8.70;;;2.83;;
9522;SDS011;63165;43.016;25.784;2022-10-28T08:56:50;8.25;;;2.65;;
9522;SDS011;63165;43.016;25.784;2022-10-28T08:59:21;6.93;;;3.10;;
9522;SDS011;63165;43.016;25.784;2022-10-28T09:01:55;11.82;;;3.10;;
9522;SDS011;63165;43.016;25.784;2022-10-28T09:04:26;7.07;;;2.97;;
9522;SDS011;63165;43.016;25.784;2022-10-28T09:07:00;7.20;;;2.85;;
9522;SDS011;63165;43.016;25.784;2022-10-28T09:09:28;6.43;;;2.83;;
9522;SDS011;63165;43.016;25.784;2022-10-28T09:12:00;5.78;;;2.67;;
9522;SDS011;63165;43.016;25.784;2022-10-28T09:14:51;7.25;;;2.63;;
9522;SDS011;63165;43.016;25.784;2022-10-28T09:17:32;8.40;;;3.08;;
9522;SDS011;63165;43.016;25.784;2022-10-28T09:20:09;12.02;;;3.00;;
9522;SDS011;63165;43.016;25.784;2022-10-28T09:22:43;7.40;;;2.67;;
9522;SDS011;63165;43.016;25.784;2022-10-28T09:25:20;4.22;;;2.33;;
9522;SDS011;63165;43.016;25.784;2022-10-28T09:28:03;6.30;;;2.72;;
9522;SDS011;63165;43.016;25.784;2022-10-28T09:30:44;9.40;;;2.45;;
9522;SDS011;63165;43.016;25.784;2022-10-28T09:33:24;6.85;;;2.83;;
9522;SDS011;63165;43.016;25.784;2022-10-28T09:36:12;6.20;;;2.80;;
9522;SDS011;63165;43.016;25.784;2022-10-28T09:38:44;7.03;;;2.60;;
9522;SDS011;63165;43.016;25.784;2022-10-28T09:41:13;10.88;;;2.90;;
9522;SDS011;63165;43.016;25.784;2022-10-28T09:43:44;8.90;;;2.63;;
9522;SDS011;63165;43.016;25.784;2022-10-28T09:46:15;5.50;;;2.70;;
9522;SDS011;63165;43.016;25.784;2022-10-28T09:48:46;10.75;;;2.60;;
9522;SDS011;63165;43.016;25.784;2022-10-28T09:51:27;7.72;;;2.33;;
9522;SDS011;63165;43.016;25.784;2022-10-28T09:54:00;6.30;;;2.40;;
9522;SDS011;63165;43.016;25.784;2022-10-28T09:56:28;7.15;;;2.50;;
9522;SDS011;63165;43.016;25.784;2022-10-28T09:58:57;7.15;;;2.75;;
9522;SDS011;63165;43.016;25.784;2022-10-28T10:01:27;5.05;;;2.22;;
9522;SDS011;63165;43.016;25.784;2022-10-28T10:04:00;8.23;;;2.70;;
9522;SDS011;63165;43.016;25.784;2022-10-28T10:06:30;6.05;;;2.83;;
9522;SDS011;63165;43.016;25.784;2022-10-28T10:09:02;8.27;;;3.10;;
9522;SDS011;63165;43.016;25.784;2022-10-28T10:11:31;6.30;;;2.97;;
9522;SDS011;63165;43.016;25.784;2022-10-28T10:14:05;10.70;;;2.72;;
9522;SDS011;63165;43.016;25.784;2022-10-28T10:16:37;10.35;;;3.05;;
9522;SDS011;63165;43.016;25.784;2022-10-28T10:19:09;13.10;;;2.95;;
9522;SDS011;63165;43.016;25.784;2022-10-28T10:21:42;7.90;;;2.67;;
9522;SDS011;63165;43.016;25.784;2022-10-28T10:24:21;12.60;;;3.05;;
9522;SDS011;63165;43.016;25.784;2022-10-28T10:26:50;7.55;;;3.10;;
9522;SDS011;63165;43.016;25.784;2022-10-28T10:29:18;7.85;;;2.50;;
9522;SDS011;63165;43.016;25.784;2022-10-28T10:31:46;8.57;;;2.63;;
9522;SDS011;63165;43.016;25.784;2022-10-28T10:34:21;9.25;;;2.80;;
9522;SDS011;63165;43.016;25.784;2022-10-28T10:36:53;8.27;;;3.05;;
9522;SDS011;63165;43.016;25.784;2022-10-28T10:39:22;11.43;;;3.08;;
9522;SDS011;63165;43.016;25.784;2022-10-28T10:41:52;9.25;;;2.95;;
9522;SDS011;63165;43.016;25.784;2022-10-28T10:44:24;11.52;;;2.78;;
9522;SDS011;63165;43.016;25.784;2022-10-28T10:52:55;7.15;;;2.65;;
9522;SDS011;63165;43.016;25.784;2022-10-28T10:55:29;5.38;;;2.55;;
9522;SDS011;63165;43.016;25.784;2022-10-28T10:57:59;5.93;;;2.80;;
9522;SDS011;63165;43.016;25.784;2022-10-28T11:00:30;4.80;;;2.63;;
9522;SDS011;63165;43.016;25.784;2022-10-28T11:03:02;6.60;;;2.50;;
9522;SDS011;63165;43.016;25.784;2022-10-28T11:05:34;5.68;;;2.50;;
9522;SDS011;63165;43.016;25.784;2022-10-28T11:08:01;10.57;;;2.70;;
9522;SDS011;63165;43.016;25.784;2022-10-28T11:10:31;7.95;;;2.55;;
9522;SDS011;63165;43.016;25.784;2022-10-28T11:13:03;5.03;;;2.28;;
9522;SDS011;63165;43.016;25.784;2022-10-28T11:15:58;6.65;;;2.38;;
9522;SDS011;63165;43.016;25.784;2022-10-28T11:18:26;11.15;;;2.30;;
9522;SDS011;63165;43.016;25.784;2022-10-28T11:20:59;6.22;;;2.38;;
9522;SDS011;63165;43.016;25.784;2022-10-28T11:23:39;6.75;;;2.42;;
9522;SDS011;63165;43.016;25.784;2022-10-28T11:26:15;6.97;;;2.17;;
9522;SDS011;63165;43.016;25.784;2022-10-28T11:28:58;4.05;;;1.80;;
9522;SDS011;63165;43.016;25.784;2022-10-28T11:34:46;6.40;;;2.17;;
9522;SDS011;63165;43.016;25.784;2022-10-28T11:37:53;8.60;;;2.40;;
9522;SDS011;63165;43.016;25.784;2022-10-28T11:40:32;6.97;;;1.92;;
9522;SDS011;63165;43.016;25.784;2022-10-28T11:43:07;7.43;;;2.10;;
9522;SDS011;63165;43.016;25.784;2022-10-28T11:45:44;14.55;;;2.40;;
9522;SDS011;63165;43.016;25.784;2022-10-28T11:48:25;8.18;;;2.90;;
9522;SDS011;63165;43.016;25.784;2022-10-28T11:54:04;10.02;;;2.17;;
9522;SDS011;63165;43.016;25.784;2022-10-28T11:56:48;9.45;;;2.55;;
9522;SDS011;63165;43.016;25.784;2022-10-28T11:59:25;10.55;;;3.03;;
9522;SDS011;63165;43.016;25.784;2022-10-28T12:02:13;7.28;;;2.42;;
9522;SDS011;63165;43.016;25.784;2022-10-28T12:04:53;5.28;;;2.65;;
9522;SDS011;63165;43.016;25.784;2022-10-28T12:07:33;10.75;;;2.83;;
9522;SDS011;63165;43.016;25.784;2022-10-28T12:10:18;6.68;;;2.30;;
9522;SDS011;63165;43.016;25.784;2022-10-28T12:13:00;6.53;;;2.47;;
9522;SDS011;63165;43.016;25.784;2022-10-28T12:15:36;4.97;;;2.20;;
9522;SDS011;63165;43.016;25.784;2022-10-28T12:18:10;6.72;;;2.20;;
9522;SDS011;63165;43.016;25.784;2022-10-28T12:20:46;6.35;;;2.20;;
9522;SDS011;63165;43.016;25.784;2022-10-28T12:23:19;6.80;;;2.37;;
9522;SDS011;63165;43.016;25.784;2022-10-28T12:25:52;6.28;;;2.10;;
9522;SDS011;63165;43.016;25.784;2022-10-28T12:28:24;7.55;;;2.40;;
9522;SDS011;63165;43.016;25.784;2022-10-28T12:30:55;4.72;;;2.17;;
9522;SDS011;63165;43.016;25.784;2022-10-28T12:33:24;8.15;;;2.10;;
9522;SDS011;63165;43.016;25.784;2022-10-28T12:36:09;7.15;;;2.00;;
9522;SDS011;63165;43.016;25.784;2022-10-28T12:38:44;4.85;;;2.28;;
9522;SDS011;63165;43.016;25.784;2022-10-28T12:41:20;4.40;;;1.85;;
9522;SDS011;63165;43.016;25.784;2022-10-28T12:43:50;9.47;;;2.27;;
9522;SDS011;63165;43.016;25.784;2022-10-28T12:46:24;9.00;;;2.50;;
9522;SDS011;63165;43.016;25.784;2022-10-28T12:49:02;5.15;;;2.00;;
9522;SDS011;63165;43.016;25.784;2022-10-28T12:51:35;7.93;;;2.30;;
9522;SDS011;63165;43.016;25.784;2022-10-28T12:54:08;5.40;;;2.25;;
9522;SDS011;63165;43.016;25.784;2022-10-28T12:56:47;9.15;;;2.15;;
9522;SDS011;63165;43.016;25.784;2022-10-28T12:59:19;5.20;;;2.22;;
9522;SDS011;63165;43.016;25.784;2022-10-28T13:01:53;8.65;;;2.30;;
9522;SDS011;63165;43.016;25.784;2022-10-28T13:04:25;8.02;;;2.20;;
9522;SDS011;63165;43.016;25.784;2022-10-28T13:06:58;7.63;;;2.25;;
9522;SDS011;63165;43.016;25.784;2022-10-28T13:09:49;6.32;;;2.47;;
9522;SDS011;63165;43.016;25.784;2022-10-28T13:12:43;17.15;;;2.75;;
9522;SDS011;63165;43.016;25.784;2022-10-28T13:18:47;15.75;;;2.83;;
9522;SDS011;63165;43.016;25.784;2022-10-28T13:21:33;8.60;;;2.38;;
9522;SDS011;63165;43.016;25.784;2022-10-28T13:24:23;5.68;;;2.20;;
9522;SDS011;63165;43.016;25.784;2022-10-28T13:26:56;6.65;;;2.80;;
9522;SDS011;63165;43.016;25.784;2022-10-28T13:29:30;10.57;;;2.42;;
9522;SDS011;63165;43.016;25.784;2022-10-28T13:32:00;8.65;;;2.40;;
9522;SDS011;63165;43.016;25.784;2022-10-28T13:34:29;6.93;;;2.50;;
9522;SDS011;63165;43.016;25.784;2022-10-28T13:36:59;8.25;;;2.40;;
9522;SDS011;63165;43.016;25.784;2022-10-28T13:39:38;6.10;;;2.60;;
9522;SDS011;63165;43.016;25.784;2022-10-28T13:51:28;8.75;;;2.40;;
9522;SDS011;63165;43.016;25.784;2022-10-28T13:54:24;13.70;;;2.90;;
9522;SDS011;63165;43.016;25.784;2022-10-28T13:56:54;12.32;;;4.00;;
9522;SDS011;63165;43.016;25.784;2022-10-28T13:59:39;11.27;;;3.55;;
9522;SDS011;63165;43.016;25.784;2022-10-28T14:02:19;11.73;;;3.33;;
9522;SDS011;63165;43.016;25.784;2022-10-28T14:04:58;7.63;;;2.78;;
9522;SDS011;63165;43.016;25.784;2022-10-28T14:07:27;7.07;;;2.50;;
9522;SDS011;63165;43.016;25.784;2022-10-28T14:12:41;7.25;;;2.30;;
9522;SDS011;63165;43.016;25.784;2022-10-28T14:15:20;6.75;;;2.47;;
9522;SDS011;63165;43.016;25.784;2022-10-28T14:17:52;7.25;;;2.33;;
9522;SDS011;63165;43.016;25.784;2022-10-28T14:20:24;56.17;;;5.75;;
9522;SDS011;63165;43.016;25.784;2022-10-28T14:22:58;17.63;;;3.20;;
9522;SDS011;63165;43.016;25.784;2022-10-28T14:28:51;6.85;;;2.20;;
9522;SDS011;63165;43.016;25.784;2022-10-28T14:31:40;7.95;;;2.83;;
9522;SDS011;63165;43.016;25.784;2022-10-28T14:40:18;9.30;;;2.60;;
9522;SDS011;63165;43.016;25.784;2022-10-28T14:42:57;11.27;;;3.42;;
9522;SDS011;63165;43.016;25.784;2022-10-28T14:45:36;19.95;;;4.53;;
9522;SDS011;63165;43.016;25.784;2022-10-28T14:48:18;20.77;;;6.35;;
9522;SDS011;63165;43.016;25.784;2022-10-28T14:50:57;24.33;;;7.43;;
9522;SDS011;63165;43.016;25.784;2022-10-28T14:53:28;34.33;;;7.72;;
9522;SDS011;63165;43.016;25.784;2022-10-28T14:56:00;27.52;;;6.18;;
9522;SDS011;63165;43.016;25.784;2022-10-28T14:58:33;18.63;;;5.43;;
9522;SDS011;63165;43.016;25.784;2022-10-28T15:01:08;33.75;;;7.68;;
9522;SDS011;63165;43.016;25.784;2022-10-28T15:03:46;47.08;;;10.95;;
9522;SDS011;63165;43.016;25.784;2022-10-28T15:06:28;37.92;;;8.43;;
9522;SDS011;63165;43.016;25.784;2022-10-28T15:09:02;36.75;;;7.97;;
9522;SDS011;63165;43.016;25.784;2022-10-28T15:11:32;32.60;;;7.03;;
9522;SDS011;63165;43.016;25.784;2022-10-28T15:14:11;31.52;;;7.15;;
9522;SDS011;63165;43.016;25.784;2022-10-28T15:16:47;35.85;;;9.88;;
9522;SDS011;63165;43.016;25.784;2022-10-28T15:19:16;72.72;;;16.83;;
9522;SDS011;63165;43.016;25.784;2022-10-28T15:22:00;50.67;;;15.90;;
9522;SDS011;63165;43.016;25.784;2022-10-28T15:24:31;36.42;;;11.68;;
9522;SDS011;63165;43.016;25.784;2022-10-28T15:26:59;28.38;;;9.00;;
9522;SDS011;63165;43.016;25.784;2022-10-28T15:29:27;21.13;;;7.43;;
9522;SDS011;63165;43.016;25.784;2022-10-28T15:32:11;32.15;;;8.98;;
9522;SDS011;63165;43.016;25.784;2022-10-28T15:34:51;27.52;;;10.30;;
9522;SDS011;63165;43.016;25.784;2022-10-28T15:37:23;34.80;;;12.18;;
9522;SDS011;63165;43.016;25.784;2022-10-28T15:40:11;108.15;;;31.65;;
9522;SDS011;63165;43.016;25.784;2022-10-28T15:43:05;73.13;;;21.75;;